sensor_id;sensor_type;location;lat;lon;timestamp;temperature;humidity
18207;DHT22;9229;52.354;20.886;2022-08-24T00:02:17;20.00;99.90
18207;DHT22;9229;52.354;20.886;2022-08-24T00:07:20;19.90;99.90
18207;DHT22;9229;52.354;20.886;2022-08-24T00:12:23;19.90;99.90
18207;DHT22;9229;52.354;20.886;2022-08-24T00:17:26;19.80;99.90
18207;DHT22;9229;52.354;20.886;2022-08-24T00:22:28;19.80;99.90
18207;DHT22;9229;52.354;20.886;2022-08-24T00:27:30;19.80;99.90
18207;DHT22;9229;52.354;20.886;2022-08-24T00:32:33;19.80;99.90
18207;DHT22;9229;52.354;20.886;2022-08-24T00:37:37;19.80;99.90
18207;DHT22;9229;52.354;20.886;2022-08-24T00:42:39;19.80;99.90
18207;DHT22;9229;52.354;20.886;2022-08-24T00:47:47;19.80;99.90
18207;DHT22;9229;52.354;20.886;2022-08-24T00:52:53;19.70;99.90
18207;DHT22;9229;52.354;20.886;2022-08-24T00:58:00;19.60;99.90
18207;DHT22;9229;52.354;20.886;2022-08-24T01:03:06;19.60;99.90
18207;DHT22;9229;52.354;20.886;2022-08-24T01:08:10;19.50;99.90
18207;DHT22;9229;52.354;20.886;2022-08-24T01:13:13;19.40;99.90
18207;DHT22;9229;52.354;20.886;2022-08-24T01:18:19;19.40;99.90
18207;DHT22;9229;52.354;20.886;2022-08-24T01:23:42;19.30;99.90
18207;DHT22;9229;52.354;20.886;2022-08-24T01:28:47;19.30;99.90
18207;DHT22;9229;52.354;20.886;2022-08-24T01:33:50;19.30;99.90
18207;DHT22;9229;52.354;20.886;2022-08-24T01:38:54;19.20;99.90
18207;DHT22;9229;52.354;20.886;2022-08-24T01:43:58;19.20;99.90
18207;DHT22;9229;52.354;20.886;2022-08-24T01:49:03;19.10;99.90
18207;DHT22;9229;52.354;20.886;2022-08-24T01:54:06;19.10;99.90
18207;DHT22;9229;52.354;20.886;2022-08-24T01:59:09;19.10;99.90
18207;DHT22;9229;52.354;20.886;2022-08-24T02:04:12;19.00;99.90
18207;DHT22;9229;52.354;20.886;2022-08-24T02:09:15;19.00;99.90
18207;DHT22;9229;52.354;20.886;2022-08-24T02:14:17;18.90;99.90
18207;DHT22;9229;52.354;20.886;2022-08-24T02:19:20;18.90;99.90
18207;DHT22;9229;52.354;20.886;2022-08-24T02:24:23;18.80;99.90
18207;DHT22;9229;52.354;20.886;2022-08-24T02:29:25;18.80;99.90
18207;DHT22;9229;52.354;20.886;2022-08-24T02:34:27;18.80;99.90
18207;DHT22;9229;52.354;20.886;2022-08-24T02:39:31;18.80;99.90
18207;DHT22;9229;52.354;20.886;2022-08-24T02:44:37;18.70;99.90
18207;DHT22;9229;52.354;20.886;2022-08-24T02:49:39;18.70;99.90
18207;DHT22;9229;52.354;20.886;2022-08-24T02:54:42;18.70;99.90
18207;DHT22;9229;52.354;20.886;2022-08-24T02:59:44;18.70;99.90
18207;DHT22;9229;52.354;20.886;2022-08-24T03:04:46;18.70;99.90
18207;DHT22;9229;52.354;20.886;2022-08-24T03:09:49;18.70;99.90
18207;DHT22;9229;52.354;20.886;2022-08-24T03:14:51;18.70;99.90
18207;DHT22;9229;52.354;20.886;2022-08-24T03:19:53;18.70;99.90
18207;DHT22;9229;52.354;20.886;2022-08-24T03:24:57;18.70;99.90
18207;DHT22;9229;52.354;20.886;2022-08-24T03:29:59;18.70;99.90
18207;DHT22;9229;52.354;20.886;2022-08-24T03:35:05;18.70;99.90
18207;DHT22;9229;52.354;20.886;2022-08-24T03:40:10;18.80;99.90
18207;DHT22;9229;52.354;20.886;2022-08-24T03:45:12;18.80;99.90
18207;DHT22;9229;52.354;20.886;2022-08-24T03:50:14;18.80;99.90
18207;DHT22;9229;52.354;20.886;2022-08-24T03:55:18;18.80;99.90
18207;DHT22;9229;52.354;20.886;2022-08-24T04:00:21;18.80;99.90
18207;DHT22;9229;52.354;20.886;2022-08-24T04:05:30;18.80;99.90
18207;DHT22;9229;52.354;20.886;2022-08-24T04:10:34;18.90;99.90
18207;DHT22;9229;52.354;20.886;2022-08-24T04:15:38;18.90;99.90
18207;DHT22;9229;52.354;20.886;2022-08-24T04:20:42;19.10;99.90
18207;DHT22;9229;52.354;20.886;2022-08-24T04:25:50;19.20;99.90
18207;DHT22;9229;52.354;20.886;2022-08-24T04:30:51;19.30;99.90
18207;DHT22;9229;52.354;20.886;2022-08-24T04:36:05;19.40;99.90
18207;DHT22;9229;52.354;20.886;2022-08-24T04:41:11;19.40;99.90
18207;DHT22;9229;52.354;20.886;2022-08-24T04:46:14;19.50;99.90
18207;DHT22;9229;52.354;20.886;2022-08-24T04:51:17;19.70;99.90
18207;DHT22;9229;52.354;20.886;2022-08-24T04:56:23;19.80;99.90
18207;DHT22;9229;52.354;20.886;2022-08-24T05:01:29;20.00;99.90
18207;DHT22;9229;52.354;20.886;2022-08-24T05:06:32;20.20;99.90
18207;DHT22;9229;52.354;20.886;2022-08-24T05:11:36;20.40;99.90
18207;DHT22;9229;52.354;20.886;2022-08-24T05:16:40;20.70;99.90
18207;DHT22;9229;52.354;20.886;2022-08-24T05:21:42;20.90;99.90
18207;DHT22;9229;52.354;20.886;2022-08-24T05:26:46;21.00;99.90
18207;DHT22;9229;52.354;20.886;2022-08-24T05:31:49;21.30;99.90
18207;DHT22;9229;52.354;20.886;2022-08-24T05:36:51;21.40;99.90
18207;DHT22;9229;52.354;20.886;2022-08-24T05:42:05;21.60;99.90
18207;DHT22;9229;52.354;20.886;2022-08-24T05:47:10;21.80;99.90
18207;DHT22;9229;52.354;20.886;2022-08-24T05:52:12;22.00;99.90
18207;DHT22;9229;52.354;20.886;2022-08-24T05:57:15;22.20;99.90
18207;DHT22;9229;52.354;20.886;2022-08-24T06:02:28;22.50;99.90
18207;DHT22;9229;52.354;20.886;2022-08-24T06:07:30;23.00;99.90
18207;DHT22;9229;52.354;20.886;2022-08-24T06:12:35;23.30;99.90
18207;DHT22;9229;52.354;20.886;2022-08-24T06:17:38;23.70;99.90
18207;DHT22;9229;52.354;20.886;2022-08-24T06:22:42;24.00;99.90
18207;DHT22;9229;52.354;20.886;2022-08-24T06:27:46;24.30;99.90
18207;DHT22;9229;52.354;20.886;2022-08-24T06:32:50;24.50;99.90
18207;DHT22;9229;52.354;20.886;2022-08-24T06:38:00;24.80;99.90
18207;DHT22;9229;52.354;20.886;2022-08-24T06:43:04;25.10;99.90
18207;DHT22;9229;52.354;20.886;2022-08-24T06:48:14;25.30;99.90
18207;DHT22;9229;52.354;20.886;2022-08-24T06:53:16;25.80;99.90
18207;DHT22;9229;52.354;20.886;2022-08-24T06:58:21;25.90;99.90
18207;DHT22;9229;52.354;20.886;2022-08-24T07:03:24;25.90;99.90
18207;DHT22;9229;52.354;20.886;2022-08-24T07:08:37;25.90;99.90
18207;DHT22;9229;52.354;20.886;2022-08-24T07:13:43;26.20;99.90
18207;DHT22;9229;52.354;20.886;2022-08-24T07:18:47;26.50;99.90
18207;DHT22;9229;52.354;20.886;2022-08-24T07:23:49;26.80;99.90
18207;DHT22;9229;52.354;20.886;2022-08-24T07:29:01;27.20;99.90
18207;DHT22;9229;52.354;20.886;2022-08-24T07:34:12;27.80;99.90
18207;DHT22;9229;52.354;20.886;2022-08-24T07:39:14;28.10;99.90
18207;DHT22;9229;52.354;20.886;2022-08-24T07:44:17;28.00;99.90
18207;DHT22;9229;52.354;20.886;2022-08-24T07:49:19;28.00;99.90
18207;DHT22;9229;52.354;20.886;2022-08-24T07:54:22;27.90;99.90
18207;DHT22;9229;52.354;20.886;2022-08-24T07:59:27;27.90;99.90
18207;DHT22;9229;52.354;20.886;2022-08-24T08:04:30;28.10;99.90
18207;DHT22;9229;52.354;20.886;2022-08-24T08:09:34;28.50;99.90
18207;DHT22;9229;52.354;20.886;2022-08-24T08:14:38;28.90;99.90
18207;DHT22;9229;52.354;20.886;2022-08-24T08:19:40;29.40;99.90
18207;DHT22;9229;52.354;20.886;2022-08-24T08:24:43;29.90;99.90
18207;DHT22;9229;52.354;20.886;2022-08-24T08:29:48;30.40;99.90
18207;DHT22;9229;52.354;20.886;2022-08-24T08:34:50;30.90;99.90
18207;DHT22;9229;52.354;20.886;2022-08-24T08:39:52;31.10;99.90
18207;DHT22;9229;52.354;20.886;2022-08-24T08:45:24;30.80;99.90
18207;DHT22;9229;52.354;20.886;2022-08-24T08:51:27;30.60;99.90
18207;DHT22;9229;52.354;20.886;2022-08-24T08:56:36;31.00;99.90
18207;DHT22;9229;52.354;20.886;2022-08-24T09:01:46;31.40;99.10
18207;DHT22;9229;52.354;20.886;2022-08-24T09:07:13;31.00;98.60
18207;DHT22;9229;52.354;20.886;2022-08-24T09:12:33;30.80;98.80
18207;DHT22;9229;52.354;20.886;2022-08-24T09:17:54;30.60;98.60
18207;DHT22;9229;52.354;20.886;2022-08-24T09:23:05;30.10;99.20
18207;DHT22;9229;52.354;20.886;2022-08-24T09:28:20;30.00;99.90
18207;DHT22;9229;52.354;20.886;2022-08-24T09:33:35;30.20;99.70
18207;DHT22;9229;52.354;20.886;2022-08-24T09:38:55;30.10;99.90
18207;DHT22;9229;52.354;20.886;2022-08-24T09:44:19;30.20;99.90
18207;DHT22;9229;52.354;20.886;2022-08-24T09:49:49;30.60;98.90
18207;DHT22;9229;52.354;20.886;2022-08-24T09:55:18;30.60;97.80
18207;DHT22;9229;52.354;20.886;2022-08-24T10:00:28;30.20;98.30
18207;DHT22;9229;52.354;20.886;2022-08-24T10:05:46;30.80;98.00
18207;DHT22;9229;52.354;20.886;2022-08-24T10:11:04;31.10;97.80
18207;DHT22;9229;52.354;20.886;2022-08-24T10:16:22;31.60;97.30
18207;DHT22;9229;52.354;20.886;2022-08-24T10:21:51;33.40;94.80
18207;DHT22;9229;52.354;20.886;2022-08-24T10:27:25;35.00;91.30
18207;DHT22;9229;52.354;20.886;2022-08-24T10:32:43;36.60;85.50
18207;DHT22;9229;52.354;20.886;2022-08-24T10:38:02;37.70;80.10
18207;DHT22;9229;52.354;20.886;2022-08-24T10:43:50;38.10;75.20
18207;DHT22;9229;52.354;20.886;2022-08-24T10:54:45;37.20;71.20
18207;DHT22;9229;52.354;20.886;2022-08-24T10:59:55;37.70;68.10
18207;DHT22;9229;52.354;20.886;2022-08-24T11:05:03;38.10;65.30
18207;DHT22;9229;52.354;20.886;2022-08-24T11:10:09;38.90;64.60
18207;DHT22;9229;52.354;20.886;2022-08-24T11:15:21;39.70;62.40
18207;DHT22;9229;52.354;20.886;2022-08-24T11:20:26;39.50;61.30
18207;DHT22;9229;52.354;20.886;2022-08-24T11:25:31;39.50;60.70
18207;DHT22;9229;52.354;20.886;2022-08-24T11:30:38;38.60;61.20
18207;DHT22;9229;52.354;20.886;2022-08-24T11:35:40;37.20;63.40
18207;DHT22;9229;52.354;20.886;2022-08-24T11:40:50;37.00;64.20
18207;DHT22;9229;52.354;20.886;2022-08-24T11:46:04;36.50;64.70
18207;DHT22;9229;52.354;20.886;2022-08-24T11:51:11;35.70;66.60
18207;DHT22;9229;52.354;20.886;2022-08-24T11:56:21;35.20;67.50
18207;DHT22;9229;52.354;20.886;2022-08-24T12:01:31;35.10;68.30
18207;DHT22;9229;52.354;20.886;2022-08-24T12:06:45;35.60;66.30
18207;DHT22;9229;52.354;20.886;2022-08-24T12:11:58;35.00;66.60
18207;DHT22;9229;52.354;20.886;2022-08-24T12:17:07;35.10;64.90
18207;DHT22;9229;52.354;20.886;2022-08-24T12:22:12;35.30;64.00
18207;DHT22;9229;52.354;20.886;2022-08-24T12:27:24;35.50;65.30
18207;DHT22;9229;52.354;20.886;2022-08-24T12:32:33;34.80;64.10
18207;DHT22;9229;52.354;20.886;2022-08-24T12:37:42;34.90;64.10
18207;DHT22;9229;52.354;20.886;2022-08-24T12:42:49;35.30;63.80
18207;DHT22;9229;52.354;20.886;2022-08-24T12:47:57;35.20;62.00
18207;DHT22;9229;52.354;20.886;2022-08-24T12:53:23;34.90;62.70
18207;DHT22;9229;52.354;20.886;2022-08-24T12:58:53;34.70;63.00
18207;DHT22;9229;52.354;20.886;2022-08-24T13:04:10;34.50;65.30
18207;DHT22;9229;52.354;20.886;2022-08-24T13:09:27;34.90;65.00
18207;DHT22;9229;52.354;20.886;2022-08-24T13:14:31;34.90;65.30
18207;DHT22;9229;52.354;20.886;2022-08-24T13:19:37;35.30;64.90
18207;DHT22;9229;52.354;20.886;2022-08-24T13:24:44;35.40;64.40
18207;DHT22;9229;52.354;20.886;2022-08-24T13:29:51;35.40;64.80
18207;DHT22;9229;52.354;20.886;2022-08-24T13:34:56;35.60;65.20
18207;DHT22;9229;52.354;20.886;2022-08-24T13:40:03;35.80;64.60
18207;DHT22;9229;52.354;20.886;2022-08-24T13:45:15;35.70;64.60
18207;DHT22;9229;52.354;20.886;2022-08-24T13:50:32;34.70;65.90
18207;DHT22;9229;52.354;20.886;2022-08-24T13:55:41;33.70;67.10
18207;DHT22;9229;52.354;20.886;2022-08-24T14:00:51;33.20;68.30
18207;DHT22;9229;52.354;20.886;2022-08-24T14:06:00;32.70;68.20
18207;DHT22;9229;52.354;20.886;2022-08-24T14:11:08;32.40;68.50
18207;DHT22;9229;52.354;20.886;2022-08-24T14:16:33;32.30;66.60
18207;DHT22;9229;52.354;20.886;2022-08-24T14:21:58;32.20;66.00
18207;DHT22;9229;52.354;20.886;2022-08-24T14:27:09;32.30;65.30
18207;DHT22;9229;52.354;20.886;2022-08-24T14:38:03;32.50;64.70
18207;DHT22;9229;52.354;20.886;2022-08-24T14:43:23;32.80;64.50
18207;DHT22;9229;52.354;20.886;2022-08-24T14:48:33;32.80;62.10
18207;DHT22;9229;52.354;20.886;2022-08-24T14:53:55;32.70;61.90
18207;DHT22;9229;52.354;20.886;2022-08-24T14:59:05;32.60;61.60
18207;DHT22;9229;52.354;20.886;2022-08-24T15:09:35;32.20;61.70
18207;DHT22;9229;52.354;20.886;2022-08-24T15:14:41;32.10;62.80
18207;DHT22;9229;52.354;20.886;2022-08-24T15:19:52;32.00;63.70
18207;DHT22;9229;52.354;20.886;2022-08-24T15:25:02;31.90;63.90
18207;DHT22;9229;52.354;20.886;2022-08-24T15:30:16;31.90;65.00
18207;DHT22;9229;52.354;20.886;2022-08-24T15:35:27;31.80;65.30
18207;DHT22;9229;52.354;20.886;2022-08-24T15:40:31;31.60;65.90
18207;DHT22;9229;52.354;20.886;2022-08-24T15:45:35;31.40;66.70
18207;DHT22;9229;52.354;20.886;2022-08-24T15:50:41;31.20;67.80
18207;DHT22;9229;52.354;20.886;2022-08-24T15:55:47;30.90;69.60
18207;DHT22;9229;52.354;20.886;2022-08-24T16:00:49;30.70;70.50
18207;DHT22;9229;52.354;20.886;2022-08-24T16:06:26;30.40;71.20
18207;DHT22;9229;52.354;20.886;2022-08-24T16:11:39;30.20;72.30
18207;DHT22;9229;52.354;20.886;2022-08-24T16:16:43;30.20;73.30
18207;DHT22;9229;52.354;20.886;2022-08-24T16:21:51;30.10;73.40
18207;DHT22;9229;52.354;20.886;2022-08-24T16:27:00;30.00;74.40
18207;DHT22;9229;52.354;20.886;2022-08-24T16:32:07;30.00;76.00
18207;DHT22;9229;52.354;20.886;2022-08-24T16:37:09;29.90;75.90
18207;DHT22;9229;52.354;20.886;2022-08-24T16:42:20;29.90;76.90
18207;DHT22;9229;52.354;20.886;2022-08-24T16:47:26;29.90;75.80
18207;DHT22;9229;52.354;20.886;2022-08-24T16:52:29;29.90;76.40
18207;DHT22;9229;52.354;20.886;2022-08-24T16:57:35;29.80;77.90
18207;DHT22;9229;52.354;20.886;2022-08-24T17:02:37;29.80;78.70
18207;DHT22;9229;52.354;20.886;2022-08-24T17:07:39;29.70;79.20
18207;DHT22;9229;52.354;20.886;2022-08-24T17:12:45;29.70;79.60
18207;DHT22;9229;52.354;20.886;2022-08-24T17:17:53;29.50;79.00
18207;DHT22;9229;52.354;20.886;2022-08-24T17:22:56;29.30;79.50
18207;DHT22;9229;52.354;20.886;2022-08-24T17:28:01;29.00;80.60
18207;DHT22;9229;52.354;20.886;2022-08-24T17:33:03;28.80;82.30
18207;DHT22;9229;52.354;20.886;2022-08-24T17:38:06;28.50;83.30
18207;DHT22;9229;52.354;20.886;2022-08-24T17:43:09;28.20;84.00
18207;DHT22;9229;52.354;20.886;2022-08-24T17:48:16;28.00;85.90
18207;DHT22;9229;52.354;20.886;2022-08-24T17:53:21;27.70;87.60
18207;DHT22;9229;52.354;20.886;2022-08-24T17:58:25;27.50;88.90
18207;DHT22;9229;52.354;20.886;2022-08-24T18:03:27;27.30;90.10
18207;DHT22;9229;52.354;20.886;2022-08-24T18:08:28;27.20;90.50
18207;DHT22;9229;52.354;20.886;2022-08-24T18:13:35;27.10;91.20
18207;DHT22;9229;52.354;20.886;2022-08-24T18:18:37;26.80;92.00
18207;DHT22;9229;52.354;20.886;2022-08-24T18:23:41;26.70;92.50
18207;DHT22;9229;52.354;20.886;2022-08-24T18:28:44;26.50;93.20
18207;DHT22;9229;52.354;20.886;2022-08-24T18:33:46;26.40;93.60
18207;DHT22;9229;52.354;20.886;2022-08-24T18:38:49;26.40;94.10
18207;DHT22;9229;52.354;20.886;2022-08-24T18:43:55;26.30;94.60
18207;DHT22;9229;52.354;20.886;2022-08-24T18:48:57;26.30;94.80
18207;DHT22;9229;52.354;20.886;2022-08-24T18:54:02;26.30;95.40
18207;DHT22;9229;52.354;20.886;2022-08-24T18:59:10;26.20;96.10
18207;DHT22;9229;52.354;20.886;2022-08-24T19:04:16;26.00;97.00
18207;DHT22;9229;52.354;20.886;2022-08-24T19:09:20;25.90;97.40
18207;DHT22;9229;52.354;20.886;2022-08-24T19:14:24;25.70;98.00
18207;DHT22;9229;52.354;20.886;2022-08-24T19:19:28;25.60;98.60
18207;DHT22;9229;52.354;20.886;2022-08-24T19:24:31;25.40;99.20
18207;DHT22;9229;52.354;20.886;2022-08-24T19:29:39;25.30;99.90
18207;DHT22;9229;52.354;20.886;2022-08-24T19:34:43;25.20;99.90
18207;DHT22;9229;52.354;20.886;2022-08-24T19:39:46;25.30;99.90
18207;DHT22;9229;52.354;20.886;2022-08-24T19:44:53;25.20;99.90
18207;DHT22;9229;52.354;20.886;2022-08-24T19:50:13;24.80;99.90
18207;DHT22;9229;52.354;20.886;2022-08-24T19:55:19;24.50;99.90
18207;DHT22;9229;52.354;20.886;2022-08-24T20:00:34;24.30;99.90
18207;DHT22;9229;52.354;20.886;2022-08-24T20:05:42;24.00;99.90
18207;DHT22;9229;52.354;20.886;2022-08-24T20:10:46;23.50;99.90
18207;DHT22;9229;52.354;20.886;2022-08-24T20:15:52;23.00;99.90
18207;DHT22;9229;52.354;20.886;2022-08-24T20:20:58;22.60;99.90
18207;DHT22;9229;52.354;20.886;2022-08-24T20:26:04;22.50;99.90
18207;DHT22;9229;52.354;20.886;2022-08-24T20:31:09;22.60;99.90
18207;DHT22;9229;52.354;20.886;2022-08-24T20:36:20;22.50;99.90
18207;DHT22;9229;52.354;20.886;2022-08-24T20:41:25;22.30;99.90
18207;DHT22;9229;52.354;20.886;2022-08-24T20:46:35;22.20;99.90
18207;DHT22;9229;52.354;20.886;2022-08-24T20:51:38;22.00;99.90
18207;DHT22;9229;52.354;20.886;2022-08-24T20:56:43;21.90;99.90
18207;DHT22;9229;52.354;20.886;2022-08-24T21:01:48;21.90;99.90
18207;DHT22;9229;52.354;20.886;2022-08-24T21:06:58;21.80;99.90
18207;DHT22;9229;52.354;20.886;2022-08-24T21:12:08;21.80;99.90
18207;DHT22;9229;52.354;20.886;2022-08-24T21:17:12;21.80;99.90
18207;DHT22;9229;52.354;20.886;2022-08-24T21:22:15;21.80;99.90
18207;DHT22;9229;52.354;20.886;2022-08-24T21:27:18;21.70;99.90
18207;DHT22;9229;52.354;20.886;2022-08-24T21:32:23;21.60;99.90
18207;DHT22;9229;52.354;20.886;2022-08-24T21:37:43;21.40;99.90
18207;DHT22;9229;52.354;20.886;2022-08-24T21:42:46;21.30;99.90
18207;DHT22;9229;52.354;20.886;2022-08-24T21:47:52;21.10;99.90
18207;DHT22;9229;52.354;20.886;2022-08-24T21:52:54;21.00;99.90
18207;DHT22;9229;52.354;20.886;2022-08-24T21:57:58;20.90;99.90
18207;DHT22;9229;52.354;20.886;2022-08-24T22:03:01;20.80;99.90
18207;DHT22;9229;52.354;20.886;2022-08-24T22:08:03;20.70;99.90
18207;DHT22;9229;52.354;20.886;2022-08-24T22:13:05;20.70;99.90
18207;DHT22;9229;52.354;20.886;2022-08-24T22:18:08;20.50;99.90
18207;DHT22;9229;52.354;20.886;2022-08-24T22:23:10;20.50;99.90
18207;DHT22;9229;52.354;20.886;2022-08-24T22:28:12;20.50;99.90
18207;DHT22;9229;52.354;20.886;2022-08-24T22:33:16;20.50;99.90
18207;DHT22;9229;52.354;20.886;2022-08-24T22:38:19;20.40;99.90
18207;DHT22;9229;52.354;20.886;2022-08-24T22:43:21;20.40;99.90
18207;DHT22;9229;52.354;20.886;2022-08-24T22:48:44;20.40;99.90
18207;DHT22;9229;52.354;20.886;2022-08-24T22:53:46;20.40;99.90
18207;DHT22;9229;52.354;20.886;2022-08-24T22:58:48;20.40;99.90
18207;DHT22;9229;52.354;20.886;2022-08-24T23:03:53;20.40;99.90
18207;DHT22;9229;52.354;20.886;2022-08-24T23:08:55;20.40;99.90
18207;DHT22;9229;52.354;20.886;2022-08-24T23:13:59;20.40;99.90
18207;DHT22;9229;52.354;20.886;2022-08-24T23:19:03;20.40;99.90
18207;DHT22;9229;52.354;20.886;2022-08-24T23:24:22;20.40;99.90
18207;DHT22;9229;52.354;20.886;2022-08-24T23:29:24;20.40;99.90
18207;DHT22;9229;52.354;20.886;2022-08-24T23:34:28;20.40;99.90
18207;DHT22;9229;52.354;20.886;2022-08-24T23:39:30;20.40;99.90
18207;DHT22;9229;52.354;20.886;2022-08-24T23:44:32;20.50;99.90
18207;DHT22;9229;52.354;20.886;2022-08-24T23:49:35;20.40;99.90
18207;DHT22;9229;52.354;20.886;2022-08-24T23:54:39;20.40;99.90
18207;DHT22;9229;52.354;20.886;2022-08-24T23:59:41;20.40;99.90
